Tsogt-Ovoo, Mongolia
Current Conditions -  °F | °C
As of 1:00 AM on Friday 28 Nov 2014 (Local Time) from ZMUB Reporting Station
Clear Clear  
Wind Chill: -4°   Ceiling: Unl
Heat Index: -4°   Visibility: 6mi
Dew Point: -11°   Wind: 0mph
Humidity: 71%   Direction: NA
Pressure: 29.62"   Gusts: NA
Location:  44.42°N, 105.32°E
Report Text: ZMUB 271700Z 00000MPS CAVOK M20/M24 Q1003 NOSIG RMK QFE646.6 66
Loading
Personal Weather Stations






























Interactive Weather Map New forecast layout! Learn more

10-Day Weather Forecast

Advertisements
Track Severe Weather on mobile